Time;durP1;ratioP1;P1;durP2;ratioP2;P2;SDS_P1;SDS_P2;PMS_P1;PMS_P2;Temp;Humidity;BMP_temperature;BMP_pressure;BME280_temperature;BME280_humidity;BME280_pressure;Samples;Min_cycle;Max_cycle;Signal;HPM_P1;HPM_P2
2022/11/24 00:01:57;;;;;;;38.20;4.85;;;;;;;;;;4984315;28;20034;-79
2022/11/24 00:04:22;;;;;;;31.13;4.68;;;;;;;;;;4983052;28;20050;-70
2022/11/24 00:06:48;;;;;;;26.55;3.85;;;;;;;;;;4978945;28;20110;-77
2022/11/24 00:09:14;;;;;;;25.33;4.30;;;;;;;;;;5005763;28;21597;-69
2022/11/24 00:11:39;;;;;;;28.90;4.80;;;;;;;;;;4982246;28;20049;-70
2022/11/24 00:14:05;;;;;;;23.63;3.60;;;;;;;;;;4983899;28;20085;-77
2022/11/24 00:16:32;;;;;;;36.83;5.15;;;;;;;;;;4981500;28;20130;-77
2022/11/24 00:18:58;;;;;;;30.45;5.72;;;;;;;;;;4969371;28;20754;-77
2022/11/24 00:21:25;;;;;;;27.92;6.85;;;;;;;;;;4981684;28;22372;-76
2022/11/24 00:23:51;;;;;;;29.25;6.88;;;;;;;;;;5014117;28;20038;-69
2022/11/24 00:26:21;;;;;;;34.75;7.25;;;;;;;;;;4982183;28;20125;-71
2022/11/24 00:28:47;;;;;;;31.10;7.57;;;;;;;;;;4982824;28;20029;-71
2022/11/24 00:31:39;;;;;;;39.88;9.35;;;;;;;;;;4979373;28;20055;-71
2022/11/24 00:34:06;;;;;;;51.05;9.00;;;;;;;;;;4972301;28;20045;-71
2022/11/24 00:36:33;;;;;;;48.63;8.55;;;;;;;;;;4977785;28;20045;-70
2022/11/24 00:39:00;;;;;;;58.25;10.35;;;;;;;;;;4979075;28;20041;-70
2022/11/24 00:41:28;;;;;;;44.97;9.23;;;;;;;;;;4967621;28;20108;-70
2022/11/24 00:43:54;;;;;;;41.42;7.30;;;;;;;;;;4989616;28;20053;-74
2022/11/24 00:46:20;;;;;;;33.50;5.32;;;;;;;;;;4983177;28;20033;-70
2022/11/24 00:48:45;;;;;;;26.65;5.30;;;;;;;;;;4982905;28;21082;-70
2022/11/24 00:51:12;;;;;;;26.63;5.00;;;;;;;;;;4984558;28;20038;-70
2022/11/24 00:53:37;;;;;;;24.67;5.32;;;;;;;;;;4969332;28;20045;-70
2022/11/24 00:56:03;;;;;;;19.05;5.30;;;;;;;;;;4983936;28;20919;-70
2022/11/24 00:58:30;;;;;;;26.50;6.30;;;;;;;;;;4984147;28;20037;-71
2022/11/24 01:01:00;;;;;;;26.70;5.13;;;;;;;;;;4984824;28;20981;-75
2022/11/24 01:03:28;;;;;;;28.73;5.13;;;;;;;;;;4985857;28;20040;-75
2022/11/24 01:06:00;;;;;;;24.02;5.53;;;;;;;;;;4981100;28;20146;-77
2022/11/24 01:08:29;;;;;;;25.80;5.93;;;;;;;;;;4981316;28;20045;-71
2022/11/24 01:11:04;;;;;;;26.85;5.28;;;;;;;;;;5004389;28;20037;-71
2022/11/24 01:13:32;;;;;;;18.10;5.57;;;;;;;;;;4985785;28;20865;-71
2022/11/24 01:15:58;;;;;;;22.02;4.50;;;;;;;;;;4985624;28;20129;-71
2022/11/24 01:18:25;;;;;;;22.20;5.80;;;;;;;;;;4983717;28;20076;-70
2022/11/24 01:20:54;;;;;;;28.40;6.25;;;;;;;;;;4986508;28;20029;-72
2022/11/24 01:23:20;;;;;;;25.83;6.38;;;;;;;;;;4989628;28;20041;-78
2022/11/24 01:25:45;;;;;;;25.20;4.97;;;;;;;;;;4984432;28;20033;-76
2022/11/24 01:28:10;;;;;;;22.45;5.13;;;;;;;;;;4984817;28;20038;-76
2022/11/24 01:30:35;;;;;;;23.23;5.13;;;;;;;;;;4985968;28;20029;-76
2022/11/24 01:33:04;;;;;;;37.97;6.57;;;;;;;;;;4996261;28;21131;-75
2022/11/24 01:35:32;;;;;;;25.42;5.22;;;;;;;;;;4980085;28;20140;-76
2022/11/24 01:37:58;;;;;;;25.17;7.03;;;;;;;;;;5015897;28;20065;-75
2022/11/24 01:40:25;;;;;;;17.33;4.45;;;;;;;;;;4985576;28;21113;-76
2022/11/24 01:42:51;;;;;;;31.67;5.70;;;;;;;;;;4981614;28;20152;-79
2022/11/24 01:45:26;;;;;;;28.60;6.57;;;;;;;;;;4991644;28;20044;-75
2022/11/24 01:47:51;;;;;;;33.30;7.10;;;;;;;;;;4999487;28;20122;-78
2022/11/24 01:50:16;;;;;;;35.05;8.48;;;;;;;;;;4982005;28;20041;-71
2022/11/24 01:52:44;;;;;;;34.78;8.38;;;;;;;;;;4982203;28;20034;-76
2022/11/24 01:55:17;;;;;;;29.05;6.28;;;;;;;;;;4981732;28;20267;-76
2022/11/24 01:57:49;;;;;;;31.90;6.78;;;;;;;;;;5014335;28;20042;-71
2022/11/24 02:00:15;;;;;;;30.25;6.60;;;;;;;;;;4983155;28;20597;-71
2022/11/24 02:02:42;;;;;;;31.90;6.05;;;;;;;;;;4983770;28;20115;-70
2022/11/24 02:05:17;;;;;;;39.70;7.00;;;;;;;;;;4980707;28;20120;-72
2022/11/24 02:07:46;;;;;;;39.78;7.07;;;;;;;;;;4980361;28;20041;-76
2022/11/24 02:10:15;;;;;;;34.13;6.85;;;;;;;;;;5008215;28;20130;-77
2022/11/24 02:12:44;;;;;;;51.60;11.60;;;;;;;;;;4984398;28;20049;-76
2022/11/24 02:15:10;;;;;;;49.90;9.77;;;;;;;;;;4978077;28;20947;-77
2022/11/24 02:17:36;;;;;;;38.10;7.78;;;;;;;;;;4983117;28;20119;-74
2022/11/24 02:20:05;;;;;;;56.53;9.35;;;;;;;;;;5005997;28;20871;-77
2022/11/24 02:22:49;;;;;;;46.60;9.68;;;;;;;;;;4982748;28;20583;-75
2022/11/24 02:25:14;;;;;;;44.10;9.45;;;;;;;;;;5003027;28;22298;-76
2022/11/24 02:27:41;;;;;;;36.75;8.25;;;;;;;;;;5008478;28;20099;-75
2022/11/24 02:30:07;;;;;;;26.15;5.55;;;;;;;;;;5010485;28;20128;-76
2022/11/24 02:32:32;;;;;;;25.05;4.30;;;;;;;;;;4980542;28;20033;-71
2022/11/24 02:34:59;;;;;;;28.83;5.15;;;;;;;;;;4982599;28;20053;-69
2022/11/24 02:37:24;;;;;;;26.73;4.13;;;;;;;;;;4983472;28;20037;-70
2022/11/24 02:39:50;;;;;;;27.13;3.80;;;;;;;;;;4985087;28;20123;-72
2022/11/24 02:42:15;;;;;;;22.40;3.83;;;;;;;;;;4982302;28;20218;-71
2022/11/24 02:44:43;;;;;;;23.88;3.95;;;;;;;;;;4966478;28;20041;-69
2022/11/24 02:47:10;;;;;;;18.58;3.53;;;;;;;;;;4981758;28;20688;-70
2022/11/24 02:49:38;;;;;;;22.05;4.07;;;;;;;;;;4984469;28;20038;-73
2022/11/24 02:52:04;;;;;;;19.20;4.10;;;;;;;;;;4983699;28;20057;-74
2022/11/24 02:54:29;;;;;;;18.50;3.55;;;;;;;;;;4984522;28;21084;-74
2022/11/24 02:56:54;;;;;;;25.40;4.07;;;;;;;;;;5001735;28;20041;-73
2022/11/24 02:59:20;;;;;;;20.77;3.83;;;;;;;;;;4983284;28;20130;-74
2022/11/24 03:01:46;;;;;;;23.17;3.63;;;;;;;;;;4985345;28;20119;-73
2022/11/24 03:04:11;;;;;;;23.20;6.55;;;;;;;;;;4979187;28;20886;-69
2022/11/24 03:06:37;;;;;;;29.08;5.07;;;;;;;;;;4981411;28;20144;-67
2022/11/24 03:09:03;;;;;;;23.90;5.45;;;;;;;;;;4981244;28;20099;-69
2022/11/24 03:11:28;;;;;;;18.77;4.00;;;;;;;;;;4975146;28;20140;-67
2022/11/24 03:13:59;;;;;;;18.63;3.13;;;;;;;;;;4981860;28;20531;-70
2022/11/24 03:16:25;;;;;;;21.17;3.17;;;;;;;;;;4982219;28;20277;-70
2022/11/24 03:18:51;;;;;;;20.17;3.10;;;;;;;;;;4981818;28;20877;-70
2022/11/24 03:21:16;;;;;;;18.13;3.47;;;;;;;;;;4983466;28;20046;-70
2022/11/24 03:23:41;;;;;;;17.83;2.90;;;;;;;;;;4983914;28;20120;-69
2022/11/24 03:26:07;;;;;;;20.02;2.85;;;;;;;;;;4995918;28;20041;-70
2022/11/24 03:28:35;;;;;;;17.50;3.13;;;;;;;;;;4979156;28;20063;-70
2022/11/24 03:31:01;;;;;;;23.13;2.90;;;;;;;;;;4982560;28;20891;-74
2022/11/24 03:33:26;;;;;;;17.58;2.85;;;;;;;;;;4983537;28;20048;-75
2022/11/24 03:35:52;;;;;;;15.98;2.88;;;;;;;;;;4981148;28;20612;-73
2022/11/24 03:38:17;;;;;;;21.48;3.20;;;;;;;;;;4981422;28;20052;-72
2022/11/24 03:40:42;;;;;;;22.50;3.20;;;;;;;;;;4990002;28;20316;-73
2022/11/24 03:43:08;;;;;;;21.13;4.05;;;;;;;;;;5002874;28;20079;-74
2022/11/24 03:45:33;;;;;;;26.23;3.38;;;;;;;;;;4990286;28;20123;-76
2022/11/24 03:47:59;;;;;;;25.20;4.10;;;;;;;;;;4980514;28;20045;-74
2022/11/24 03:50:24;;;;;;;24.08;3.90;;;;;;;;;;4983077;28;20157;-75
2022/11/24 03:52:52;;;;;;;29.83;4.15;;;;;;;;;;4983787;28;20044;-76
2022/11/24 03:55:18;;;;;;;31.88;4.43;;;;;;;;;;4983728;28;20073;-73
2022/11/24 03:57:43;;;;;;;28.95;4.30;;;;;;;;;;4981765;28;20986;-72
2022/11/24 04:00:10;;;;;;;32.97;4.65;;;;;;;;;;4965053;28;20038;-73
2022/11/24 04:02:35;;;;;;;31.13;5.15;;;;;;;;;;5012587;28;20819;-72
2022/11/24 04:05:00;;;;;;;45.17;6.38;;;;;;;;;;4983217;28;20033;-72
2022/11/24 04:07:26;;;;;;;30.52;4.03;;;;;;;;;;4982375;28;20121;-73
2022/11/24 04:09:52;;;;;;;46.80;6.30;;;;;;;;;;4980456;28;20051;-73
2022/11/24 04:15:01;;;;;;;49.80;6.20;;;;;;;;;;4983131;28;20088;-75
2022/11/24 04:17:26;;;;;;;39.35;4.80;;;;;;;;;;4986582;28;20041;-76
2022/11/24 04:19:51;;;;;;;29.27;5.32;;;;;;;;;;4985968;28;20563;-69
2022/11/24 04:22:17;;;;;;;36.08;5.80;;;;;;;;;;4985500;28;20142;-71
2022/11/24 04:24:42;;;;;;;41.53;5.97;;;;;;;;;;4987202;28;20065;-66
2022/11/24 04:27:08;;;;;;;44.88;5.95;;;;;;;;;;4984978;28;20033;-69
2022/11/24 04:29:33;;;;;;;48.35;5.05;;;;;;;;;;4984327;28;20041;-69
2022/11/24 04:31:58;;;;;;;55.40;6.20;;;;;;;;;;4984003;28;20038;-69
2022/11/24 04:34:24;;;;;;;56.72;6.88;;;;;;;;;;5000404;28;20080;-70
2022/11/24 04:36:49;;;;;;;41.05;4.65;;;;;;;;;;4988028;28;20612;-68
2022/11/24 04:39:15;;;;;;;41.28;5.15;;;;;;;;;;4983902;28;20044;-71
2022/11/24 04:41:40;;;;;;;34.35;4.30;;;;;;;;;;4984549;28;20041;-71
2022/11/24 04:44:05;;;;;;;36.53;4.15;;;;;;;;;;5003887;28;20072;-71
2022/11/24 04:46:30;;;;;;;36.40;3.85;;;;;;;;;;5006112;28;20045;-72
2022/11/24 04:48:56;;;;;;;32.30;3.95;;;;;;;;;;4989944;28;20069;-70
2022/11/24 04:51:21;;;;;;;40.67;5.03;;;;;;;;;;4984769;28;20060;-72
2022/11/24 04:53:49;;;;;;;29.38;4.20;;;;;;;;;;4985176;28;20853;-71
2022/11/24 04:56:14;;;;;;;28.48;4.30;;;;;;;;;;4985279;28;21019;-73
2022/11/24 04:58:42;;;;;;;33.55;4.32;;;;;;;;;;4987473;28;20673;-71
2022/11/24 05:01:08;;;;;;;25.27;3.85;;;;;;;;;;4982728;28;20099;-70
2022/11/24 05:03:33;;;;;;;40.25;3.95;;;;;;;;;;4983789;28;20049;-70
2022/11/24 05:06:01;;;;;;;30.63;4.15;;;;;;;;;;5005896;28;20119;-71
2022/11/24 05:08:27;;;;;;;31.48;5.15;;;;;;;;;;5004449;28;20036;-70
2022/11/24 05:10:52;;;;;;;28.10;3.50;;;;;;;;;;5036483;28;20114;-69
2022/11/24 05:13:18;;;;;;;24.70;4.10;;;;;;;;;;5005254;28;20103;-70
2022/11/24 05:15:43;;;;;;;28.65;4.88;;;;;;;;;;5005131;28;20037;-77
2022/11/24 05:18:10;;;;;;;35.00;4.25;;;;;;;;;;5005717;28;20064;-77
2022/11/24 05:20:36;;;;;;;36.22;4.82;;;;;;;;;;5035193;28;20039;-75
2022/11/24 05:23:02;;;;;;;37.30;5.22;;;;;;;;;;4990348;28;20418;-77
2022/11/24 05:25:30;;;;;;;43.75;5.65;;;;;;;;;;4983554;28;20070;-77
2022/11/24 05:27:58;;;;;;;41.10;4.43;;;;;;;;;;4985516;28;20072;-77
2022/11/24 05:30:23;;;;;;;53.75;5.47;;;;;;;;;;4984553;28;20045;-79
2022/11/24 05:32:48;;;;;;;37.97;5.40;;;;;;;;;;4999897;28;21142;-78
2022/11/24 05:35:14;;;;;;;50.65;5.15;;;;;;;;;;4995571;28;20056;-71
2022/11/24 05:37:39;;;;;;;43.63;5.53;;;;;;;;;;4984562;28;20033;-72
2022/11/24 05:40:07;;;;;;;43.17;4.80;;;;;;;;;;4984075;28;20037;-74
2022/11/24 05:42:39;;;;;;;26.58;3.92;;;;;;;;;;4979852;28;20041;-76
2022/11/24 05:45:04;;;;;;;36.22;3.90;;;;;;;;;;4990013;28;20306;-76
2022/11/24 05:47:30;;;;;;;33.15;4.57;;;;;;;;;;4985798;28;20033;-75
2022/11/24 05:49:55;;;;;;;27.60;3.85;;;;;;;;;;4985180;28;20033;-74
2022/11/24 05:52:23;;;;;;;37.60;5.55;;;;;;;;;;4984339;28;20095;-73
2022/11/24 05:54:48;;;;;;;37.10;3.88;;;;;;;;;;4983202;28;20041;-73
2022/11/24 05:57:16;;;;;;;32.72;4.03;;;;;;;;;;4981137;28;20524;-73
2022/11/24 05:59:44;;;;;;;23.05;4.28;;;;;;;;;;4985185;28;20045;-72
2022/11/24 06:02:12;;;;;;;32.05;4.25;;;;;;;;;;4982939;28;20041;-73
2022/11/24 06:04:38;;;;;;;46.13;6.03;;;;;;;;;;4986368;28;20095;-74
2022/11/24 06:07:07;;;;;;;34.63;4.10;;;;;;;;;;4977962;28;20045;-72
2022/11/24 06:09:34;;;;;;;41.70;4.82;;;;;;;;;;5000356;28;20041;-72
2022/11/24 06:12:02;;;;;;;21.27;3.20;;;;;;;;;;4984153;28;20066;-72
2022/11/24 06:14:27;;;;;;;30.88;4.20;;;;;;;;;;4972131;28;20053;-72
2022/11/24 06:16:55;;;;;;;30.60;4.47;;;;;;;;;;4981332;28;20043;-73
2022/11/24 06:19:23;;;;;;;43.40;4.70;;;;;;;;;;4992643;28;20453;-72
2022/11/24 06:21:49;;;;;;;24.92;3.72;;;;;;;;;;4982431;28;20095;-73
2022/11/24 06:24:14;;;;;;;31.42;2.72;;;;;;;;;;4981702;28;21758;-73
2022/11/24 06:26:40;;;;;;;18.70;2.38;;;;;;;;;;4979850;28;20140;-72
2022/11/24 06:29:06;;;;;;;22.95;2.50;;;;;;;;;;4984754;28;20157;-74
2022/11/24 06:31:32;;;;;;;17.65;2.83;;;;;;;;;;4982966;28;20037;-74
2022/11/24 06:33:58;;;;;;;21.67;2.58;;;;;;;;;;4980938;28;20068;-73
2022/11/24 06:36:24;;;;;;;27.98;2.70;;;;;;;;;;4977524;28;20033;-74
2022/11/24 06:38:49;;;;;;;18.27;2.95;;;;;;;;;;4996040;28;20044;-75
2022/11/24 06:41:20;;;;;;;18.80;2.53;;;;;;;;;;4981669;28;20041;-75
2022/11/24 06:43:46;;;;;;;20.80;2.60;;;;;;;;;;5014032;28;20045;-75
2022/11/24 06:46:12;;;;;;;24.17;2.90;;;;;;;;;;5013319;28;21111;-74
2022/11/24 06:48:37;;;;;;;21.70;2.58;;;;;;;;;;4983725;28;20038;-75
2022/11/24 06:51:05;;;;;;;15.00;2.17;;;;;;;;;;4981505;28;20042;-74
2022/11/24 06:53:31;;;;;;;20.90;2.55;;;;;;;;;;4982674;28;20041;-74
2022/11/24 06:55:59;;;;;;;15.77;2.35;;;;;;;;;;4984057;28;20153;-75
2022/11/24 06:58:25;;;;;;;18.63;2.95;;;;;;;;;;4975594;28;20041;-76
2022/11/24 07:00:50;;;;;;;27.92;3.53;;;;;;;;;;5002518;28;20036;-77
2022/11/24 07:03:18;;;;;;;16.60;2.05;;;;;;;;;;4977400;28;20030;-75
2022/11/24 07:05:43;;;;;;;12.48;1.83;;;;;;;;;;4980844;28;20672;-75
2022/11/24 07:08:14;;;;;;;25.70;6.80;;;;;;;;;;4980078;28;20076;-74
2022/11/24 07:10:39;;;;;;;28.80;7.65;;;;;;;;;;4972926;28;20083;-74
2022/11/24 07:13:07;;;;;;;18.50;3.65;;;;;;;;;;4982218;28;20103;-74
2022/11/24 07:15:33;;;;;;;23.88;3.25;;;;;;;;;;4982253;28;20109;-74
2022/11/24 07:17:58;;;;;;;21.65;5.47;;;;;;;;;;4979129;28;20029;-75
2022/11/24 07:20:24;;;;;;;25.42;6.75;;;;;;;;;;4982134;28;20031;-75
2022/11/24 07:22:53;;;;;;;23.17;6.18;;;;;;;;;;4973950;28;20029;-74
2022/11/24 07:25:18;;;;;;;31.17;9.85;;;;;;;;;;4983715;28;20034;-74
2022/11/24 07:27:46;;;;;;;38.13;8.70;;;;;;;;;;4981801;28;20108;-73
2022/11/24 07:30:11;;;;;;;46.60;9.35;;;;;;;;;;4981425;28;20520;-74
2022/11/24 07:32:39;;;;;;;45.80;9.35;;;;;;;;;;4976865;28;20069;-79
2022/11/24 07:35:20;;;;;;;53.70;11.85;;;;;;;;;;4966581;28;20058;-79
2022/11/24 07:37:48;;;;;;;53.85;14.77;;;;;;;;;;4976362;28;20119;-79
2022/11/24 07:40:13;;;;;;;38.08;7.18;;;;;;;;;;4998946;28;20075;-78
2022/11/24 07:42:39;;;;;;;20.90;3.58;;;;;;;;;;4994687;28;20079;-76
2022/11/24 07:45:07;;;;;;;40.55;4.70;;;;;;;;;;4989812;28;20033;-78
2022/11/24 07:47:32;;;;;;;34.17;4.15;;;;;;;;;;4980262;28;20588;-77
2022/11/24 07:49:58;;;;;;;40.35;4.40;;;;;;;;;;4973039;28;20040;-77
2022/11/24 07:52:25;;;;;;;28.05;4.65;;;;;;;;;;4976678;28;20140;-76
2022/11/24 07:55:02;;;;;;;27.92;3.47;;;;;;;;;;4977948;28;20054;-79
2022/11/24 07:57:30;;;;;;;32.50;4.13;;;;;;;;;;4980815;28;20041;-78
2022/11/24 07:59:55;;;;;;;35.30;4.18;;;;;;;;;;4988617;28;20041;-76
2022/11/24 08:02:21;;;;;;;36.03;4.25;;;;;;;;;;4977692;28;20041;-77
2022/11/24 08:04:46;;;;;;;30.95;4.90;;;;;;;;;;4980990;28;20045;-77
2022/11/24 08:07:12;;;;;;;30.25;4.68;;;;;;;;;;4979414;28;20201;-75
2022/11/24 08:09:37;;;;;;;30.13;3.90;;;;;;;;;;4981351;28;20514;-76
2022/11/24 08:12:02;;;;;;;36.00;4.80;;;;;;;;;;4978125;28;20038;-77
2022/11/24 08:14:30;;;;;;;29.38;3.47;;;;;;;;;;4975410;28;20049;-75
2022/11/24 08:16:56;;;;;;;27.33;3.25;;;;;;;;;;4976222;28;20046;-75
2022/11/24 08:19:22;;;;;;;40.97;4.45;;;;;;;;;;4978823;28;20830;-75
2022/11/24 08:21:48;;;;;;;28.83;3.88;;;;;;;;;;4978528;28;20108;-76
2022/11/24 08:24:14;;;;;;;20.90;3.35;;;;;;;;;;4991866;28;20448;-76
2022/11/24 08:26:40;;;;;;;27.55;3.65;;;;;;;;;;4978609;28;20037;-76
2022/11/24 08:29:05;;;;;;;34.95;4.38;;;;;;;;;;4979039;28;20339;-75
2022/11/24 08:31:34;;;;;;;42.88;5.10;;;;;;;;;;4979151;28;20126;-75
2022/11/24 08:34:00;;;;;;;27.80;3.53;;;;;;;;;;4977248;28;20321;-75
2022/11/24 08:36:26;;;;;;;32.65;4.13;;;;;;;;;;4977017;28;20145;-74
2022/11/24 08:38:55;;;;;;;29.67;5.15;;;;;;;;;;4978242;28;20597;-75
2022/11/24 08:41:21;;;;;;;28.02;4.18;;;;;;;;;;4985181;28;20703;-74
2022/11/24 08:43:47;;;;;;;27.02;4.22;;;;;;;;;;4992935;28;20111;-74
2022/11/24 08:46:15;;;;;;;38.88;4.47;;;;;;;;;;4970536;28;20216;-75
2022/11/24 08:48:41;;;;;;;30.73;3.65;;;;;;;;;;4981780;28;20037;-75
2022/11/24 08:51:08;;;;;;;30.45;4.38;;;;;;;;;;4960426;28;20120;-75
2022/11/24 08:53:33;;;;;;;35.25;4.72;;;;;;;;;;4993215;28;20147;-74
2022/11/24 08:55:59;;;;;;;27.23;4.05;;;;;;;;;;5013144;28;20048;-74
2022/11/24 08:58:25;;;;;;;30.75;4.10;;;;;;;;;;5020368;28;20466;-74
2022/11/24 09:00:50;;;;;;;30.80;3.92;;;;;;;;;;4996605;28;20143;-75
2022/11/24 09:03:16;;;;;;;43.60;4.55;;;;;;;;;;4992182;28;20033;-76
2022/11/24 09:05:42;;;;;;;37.35;5.28;;;;;;;;;;5000969;28;20056;-75
2022/11/24 09:08:07;;;;;;;44.70;5.28;;;;;;;;;;4978828;28;20041;-76
2022/11/24 09:10:32;;;;;;;37.08;4.60;;;;;;;;;;4964753;28;20076;-73
2022/11/24 09:13:00;;;;;;;23.65;4.45;;;;;;;;;;4981715;28;20639;-74
2022/11/24 09:15:27;;;;;;;25.45;4.18;;;;;;;;;;4981684;28;20046;-72
2022/11/24 09:17:53;;;;;;;22.77;3.83;;;;;;;;;;4981573;28;20124;-72
2022/11/24 09:20:18;;;;;;;32.05;4.20;;;;;;;;;;4978742;28;20038;-72
2022/11/24 09:22:46;;;;;;;38.90;4.65;;;;;;;;;;4980162;28;20293;-72
2022/11/24 09:25:12;;;;;;;30.42;4.50;;;;;;;;;;4977205;28;20564;-73
2022/11/24 09:27:40;;;;;;;27.13;4.10;;;;;;;;;;5020403;28;20051;-72
2022/11/24 09:30:07;;;;;;;36.88;5.53;;;;;;;;;;5003107;28;20467;-72
2022/11/24 09:32:34;;;;;;;33.08;4.32;;;;;;;;;;4988315;28;20060;-73
2022/11/24 09:35:00;;;;;;;26.35;3.88;;;;;;;;;;5010281;28;20138;-72
2022/11/24 09:37:28;;;;;;;26.75;3.80;;;;;;;;;;5001451;28;20588;-71
2022/11/24 09:39:53;;;;;;;28.02;4.68;;;;;;;;;;4990855;28;20045;-72
2022/11/24 09:42:22;;;;;;;35.88;4.65;;;;;;;;;;5012347;28;22291;-72
2022/11/24 09:44:59;;;;;;;34.13;4.72;;;;;;;;;;4981028;28;20398;-72
2022/11/24 09:47:40;;;;;;;30.60;4.93;;;;;;;;;;4980693;28;20590;-73
2022/11/24 09:50:05;;;;;;;35.05;5.07;;;;;;;;;;4977904;28;20540;-72
2022/11/24 09:52:43;;;;;;;35.15;4.78;;;;;;;;;;4981369;28;20037;-72
2022/11/24 09:55:20;;;;;;;33.08;4.93;;;;;;;;;;4980974;28;20364;-72
2022/11/24 09:57:48;;;;;;;29.75;4.55;;;;;;;;;;4982626;28;20424;-71
2022/11/24 10:00:13;;;;;;;35.47;4.70;;;;;;;;;;4980957;28;20299;-71
2022/11/24 10:02:39;;;;;;;37.85;4.95;;;;;;;;;;4980157;28;20742;-72
2022/11/24 10:05:05;;;;;;;33.17;5.15;;;;;;;;;;4977709;28;20045;-71
2022/11/24 10:07:41;;;;;;;35.17;5.15;;;;;;;;;;4980845;28;20050;-72
2022/11/24 10:10:23;;;;;;;32.17;4.93;;;;;;;;;;4981109;28;21811;-73
2022/11/24 10:12:52;;;;;;;38.50;6.07;;;;;;;;;;4979663;28;20041;-72
2022/11/24 10:15:36;;;;;;;40.67;5.43;;;;;;;;;;4976532;28;20066;-71
2022/11/24 10:18:20;;;;;;;55.33;5.97;;;;;;;;;;4981912;28;20723;-72
2022/11/24 10:21:03;;;;;;;41.78;6.15;;;;;;;;;;5010405;28;20481;-72
2022/11/24 10:23:42;;;;;;;44.25;5.93;;;;;;;;;;5001336;28;20037;-71
2022/11/24 10:26:16;;;;;;;37.50;5.72;;;;;;;;;;4996967;28;20246;-72
2022/11/24 10:28:46;;;;;;;47.83;6.15;;;;;;;;;;4999546;28;20037;-71
2022/11/24 10:31:11;;;;;;;42.65;5.20;;;;;;;;;;5014535;28;20132;-73
2022/11/24 10:33:36;;;;;;;40.13;5.60;;;;;;;;;;4999711;28;20043;-71
2022/11/24 10:36:06;;;;;;;41.15;6.22;;;;;;;;;;5000359;28;20063;-71
2022/11/24 10:38:42;;;;;;;60.42;7.07;;;;;;;;;;4978254;28;20215;-72
2022/11/24 10:41:11;;;;;;;45.58;6.28;;;;;;;;;;4994021;28;20184;-72
2022/11/24 10:43:37;;;;;;;43.15;6.45;;;;;;;;;;4999926;28;20036;-73
2022/11/24 10:46:21;;;;;;;51.67;5.97;;;;;;;;;;4994980;28;20048;-71
2022/11/24 10:48:50;;;;;;;48.75;7.47;;;;;;;;;;4973429;28;20218;-71
2022/11/24 10:51:36;;;;;;;44.25;7.10;;;;;;;;;;4974086;28;20037;-72
2022/11/24 10:54:21;;;;;;;35.60;5.70;;;;;;;;;;4982595;28;20053;-72
2022/11/24 10:56:49;;;;;;;46.03;6.85;;;;;;;;;;5015389;28;20052;-71
2022/11/24 10:59:23;;;;;;;50.42;6.57;;;;;;;;;;4992692;28;20041;-69
2022/11/24 11:01:49;;;;;;;51.85;7.22;;;;;;;;;;4979370;28;20045;-70
2022/11/24 11:04:18;;;;;;;41.53;6.53;;;;;;;;;;4981412;28;20463;-72
2022/11/24 11:06:44;;;;;;;48.22;6.95;;;;;;;;;;4978162;28;20045;-69
2022/11/24 11:09:18;;;;;;;41.08;11.43;;;;;;;;;;5007138;28;20420;-73
2022/11/24 11:11:45;;;;;;;40.42;7.45;;;;;;;;;;4980375;28;20768;-75
2022/11/24 11:14:11;;;;;;;36.05;6.90;;;;;;;;;;4982489;28;20098;-73
2022/11/24 11:16:59;;;;;;;31.52;9.90;;;;;;;;;;4983746;28;20037;-73
2022/11/24 11:19:27;;;;;;;32.38;10.65;;;;;;;;;;4998454;28;20043;-73
2022/11/24 11:22:19;;;;;;;29.65;8.02;;;;;;;;;;5003426;28;20033;-72
2022/11/24 11:24:45;;;;;;;34.88;9.50;;;;;;;;;;4992903;28;20099;-73
2022/11/24 11:27:18;;;;;;;36.17;8.23;;;;;;;;;;4978986;28;20037;-73
2022/11/24 11:29:46;;;;;;;23.95;6.93;;;;;;;;;;4977076;28;20100;-73
2022/11/24 11:32:21;;;;;;;33.25;7.95;;;;;;;;;;4981085;28;20038;-73
2022/11/24 11:34:50;;;;;;;37.22;9.35;;;;;;;;;;4980925;28;20128;-72
2022/11/24 11:37:17;;;;;;;31.67;8.23;;;;;;;;;;4982721;28;20061;-72
2022/11/24 11:39:45;;;;;;;33.67;7.05;;;;;;;;;;4980143;28;20123;-71
2022/11/24 11:42:14;;;;;;;42.90;8.00;;;;;;;;;;5011922;28;20874;-71
2022/11/24 11:44:54;;;;;;;30.63;6.65;;;;;;;;;;4983714;28;21148;-71
2022/11/24 11:47:39;;;;;;;30.63;6.10;;;;;;;;;;5001794;28;20045;-71
2022/11/24 11:50:12;;;;;;;31.92;7.40;;;;;;;;;;4988482;28;20033;-73
2022/11/24 11:52:43;;;;;;;32.47;9.07;;;;;;;;;;5000304;28;20996;-71
2022/11/24 11:55:09;;;;;;;;;;;;;;;;;;5001299;28;20055;-73
2022/11/24 11:57:34;;;;;;;28.73;8.00;;;;;;;;;;4995774;28;19916;-72
2022/11/24 12:00:16;;;;;;;22.63;7.35;;;;;;;;;;4999977;28;20040;-70
2022/11/24 12:02:47;;;;;;;28.92;6.00;;;;;;;;;;4998229;28;20044;-73
2022/11/24 12:05:28;;;;;;;33.67;5.07;;;;;;;;;;5001795;28;20042;-71
2022/11/24 12:07:55;;;;;;;29.13;4.15;;;;;;;;;;5000424;28;20045;-74
2022/11/24 12:10:41;;;;;;;35.33;8.45;;;;;;;;;;4987681;28;20041;-72
2022/11/24 12:13:27;;;;;;;33.80;9.30;;;;;;;;;;5001111;28;20603;-70
2022/11/24 12:15:55;;;;;;;35.45;7.25;;;;;;;;;;5000752;28;20053;-73
2022/11/24 12:18:33;;;;;;;36.50;6.53;;;;;;;;;;4998805;28;20287;-71
2022/11/24 12:21:01;;;;;;;32.05;6.30;;;;;;;;;;5000123;28;20064;-72
2022/11/24 12:23:48;;;;;;;37.20;8.55;;;;;;;;;;4997634;28;20025;-72
2022/11/24 12:26:23;;;;;;;29.05;9.15;;;;;;;;;;4998792;28;20037;-72
2022/11/24 12:29:00;;;;;;;30.02;9.38;;;;;;;;;;4998689;28;20040;-73
2022/11/24 12:31:41;;;;;;;31.80;9.40;;;;;;;;;;4996681;28;20116;-71
2022/11/24 12:34:06;;;;;;;39.20;10.63;;;;;;;;;;4981140;28;20127;-72
2022/11/24 12:36:49;;;;;;;33.40;9.25;;;;;;;;;;4979426;28;20137;-71
2022/11/24 12:39:24;;;;;;;35.67;8.48;;;;;;;;;;4984782;28;20049;-73
2022/11/24 12:42:07;;;;;;;35.58;9.30;;;;;;;;;;4981580;28;20177;-71
2022/11/24 12:44:38;;;;;;;28.90;5.97;;;;;;;;;;4978743;28;20397;-71
2022/11/24 12:47:15;;;;;;;25.35;6.50;;;;;;;;;;4982237;28;20833;-71
2022/11/24 12:49:52;;;;;;;28.33;6.53;;;;;;;;;;4983733;28;20554;-71
2022/11/24 12:52:39;;;;;;;28.50;8.30;;;;;;;;;;4980770;28;20543;-70
2022/11/24 12:55:07;;;;;;;30.75;8.30;;;;;;;;;;4979310;28;20061;-72
2022/11/24 12:57:38;;;;;;;30.63;6.80;;;;;;;;;;4975732;28;20381;-71
2022/11/24 13:00:11;;;;;;;38.72;8.43;;;;;;;;;;5009701;28;20056;-71
2022/11/24 13:02:45;;;;;;;29.33;7.10;;;;;;;;;;4993709;28;20107;-70
2022/11/24 13:05:26;;;;;;;36.63;7.85;;;;;;;;;;5000812;28;20048;-70
2022/11/24 13:07:56;;;;;;;42.33;10.05;;;;;;;;;;5005599;28;20051;-70
2022/11/24 13:10:22;;;;;;;31.42;7.32;;;;;;;;;;5011159;28;20052;-69
2022/11/24 13:13:04;;;;;;;29.98;6.85;;;;;;;;;;4999624;28;20551;-71
2022/11/24 13:15:30;;;;;;;30.48;6.50;;;;;;;;;;5029860;28;20807;-71
2022/11/24 13:17:55;;;;;;;29.52;6.40;;;;;;;;;;5000355;28;20029;-72
2022/11/24 13:20:30;;;;;;;30.35;7.22;;;;;;;;;;5014885;28;20491;-72
2022/11/24 13:23:02;;;;;;;24.75;5.70;;;;;;;;;;5000381;28;20303;-72
2022/11/24 13:25:29;;;;;;;31.15;9.50;;;;;;;;;;5000886;28;20560;-72
2022/11/24 13:27:58;;;;;;;36.50;8.60;;;;;;;;;;5013591;28;20037;-72
2022/11/24 13:30:30;;;;;;;34.08;9.32;;;;;;;;;;5000543;28;20059;-71
2022/11/24 13:33:10;;;;;;;34.38;6.93;;;;;;;;;;4999503;28;20040;-71
2022/11/24 13:35:36;;;;;;;25.98;5.50;;;;;;;;;;5000946;28;20067;-72
2022/11/24 13:38:04;;;;;;;28.60;5.60;;;;;;;;;;5000161;28;20203;-71
2022/11/24 13:40:29;;;;;;;32.05;5.95;;;;;;;;;;4999432;28;20037;-70
2022/11/24 13:43:00;;;;;;;30.20;6.13;;;;;;;;;;4997588;28;20176;-72
2022/11/24 13:45:34;;;;;;;20.63;4.93;;;;;;;;;;4999524;28;20033;-71
2022/11/24 13:48:19;;;;;;;23.40;6.55;;;;;;;;;;5000019;28;20462;-71
2022/11/24 13:50:51;;;;;;;28.02;6.03;;;;;;;;;;5020153;28;20162;-71
2022/11/24 13:53:27;;;;;;;25.30;5.00;;;;;;;;;;4997524;28;20033;-72
2022/11/24 13:55:58;;;;;;;27.00;4.85;;;;;;;;;;4997470;28;20121;-71
2022/11/24 13:58:29;;;;;;;31.08;6.00;;;;;;;;;;4999316;28;20786;-70
2022/11/24 14:01:00;;;;;;;31.33;6.72;;;;;;;;;;4999003;28;20026;-71
2022/11/24 14:03:29;;;;;;;29.48;7.13;;;;;;;;;;4998854;28;20059;-71
2022/11/24 14:05:57;;;;;;;25.13;5.18;;;;;;;;;;4997826;28;20453;-72
2022/11/24 14:08:31;;;;;;;26.63;5.75;;;;;;;;;;4998906;28;20595;-70
2022/11/24 14:10:58;;;;;;;25.13;5.03;;;;;;;;;;4997134;28;20068;-69
2022/11/24 14:13:32;;;;;;;29.73;5.95;;;;;;;;;;4995269;28;20092;-71
2022/11/24 14:16:03;;;;;;;27.42;6.13;;;;;;;;;;4979316;28;20079;-70
2022/11/24 14:18:31;;;;;;;32.67;7.88;;;;;;;;;;4972974;28;20071;-71
2022/11/24 14:21:00;;;;;;;35.00;7.28;;;;;;;;;;4978445;28;20307;-70
2022/11/24 14:23:25;;;;;;;32.13;8.18;;;;;;;;;;4993807;28;20061;-72
2022/11/24 14:25:51;;;;;;;22.85;5.90;;;;;;;;;;4979448;28;20030;-71
2022/11/24 14:28:27;;;;;;;27.23;5.97;;;;;;;;;;4979166;28;20047;-71
2022/11/24 14:31:05;;;;;;;37.30;9.55;;;;;;;;;;4975726;28;20494;-71
2022/11/24 14:33:30;;;;;;;41.20;11.85;;;;;;;;;;4978408;28;20065;-69
2022/11/24 14:35:58;;;;;;;35.15;11.30;;;;;;;;;;4980014;28;20451;-70
2022/11/24 14:38:23;;;;;;;39.05;10.70;;;;;;;;;;4977614;28;20584;-71
2022/11/24 14:40:50;;;;;;;24.15;5.75;;;;;;;;;;4989297;28;20040;-70
2022/11/24 14:43:24;;;;;;;23.48;4.80;;;;;;;;;;4978497;28;20789;-69